Terminal Aerodrome Forecast
Issued by NWS Cleveland, OH

Home | Current Version | Previous Version | Text Only | Print | Product List | Glossary On
Versions: 1 2 3 4 5 6 7 8 9 10 11 12 13 14 15 16 17 18 19 20 21 22 23 24 25
000
FTUS41 KCLE 222327
TAFMFD
TAF
KMFD 222327Z 2300/2324 17014G22KT 6SM -SHRA SCT035 OVC050
     FM230100 17015G23KT 6SM -SHRA BKN018 OVC035
     FM230600 21011KT P6SM BKN035
     FM231400 22014G22KT 5SM -SHRA OVC018
     FM232100 24016G26KT P6SM VCSH OVC018=

USA.gov is the U.S. government's official web portal to all federal, state and local government web resources and services.